Latest Coastal Weather Observations for Kiama

IDN60701

Issued at 12:05 am EDT Tuesday 21 October 2014 (issued every 10 minutes, with the page automatically refreshed every 10 minutes)

About coastal observations | Map of coastal stations | Coastal observations for NSW | Marine services | Other Formats
Station Details ID: 068242 Name: KIAMA (BOMBO HEADLAND) Lat: -34.65 Lon: 150.86 Height: 15.5 m
Data from the previous 72 hours. | See also: Recent months at Kiama
Date/Time
EDT
Temp

°C
Wind Pressure Rain
since 9am
mm
Weather Cloud Vis
km
Sea
Height
m
Swell
Dir
 
Speed
knots
Gust
knots
hPa Trend Height
m
Period
s
Dir
21/12:00am 14.1 SSW 8 10 - - 0.2 - - - - - - -
 
Date/Time
EDT
Temp

°C
Wind Pressure Rain
since 9am
mm
Weather Cloud Vis
km
Sea
Height
m
Swell
Dir
 
Speed
knots
Gust
knots
hPa Trend Height
m
Period
s
Dir
20/11:30pm 14.2 S 6 8 - - 0.2 - - - - - - -
20/11:00pm 14.7 SSW 8 10 - - 0.2 - - - - - - -
20/10:30pm 14.8 SSW 8 10 - - 0.2 - - - - - - -
20/10:00pm 15.1 S 10 12 - - 0.2 - - - - - - -
20/09:30pm 15.5 S 9 12 - - 0.2 - - - - - - -
20/09:00pm 15.3 SSW 9 13 - - 0.2 - - - - - - -
20/08:30pm 16.1 SSE 13 15 - - 0.2 - - - - - - -
20/08:00pm 16.0 S 14 18 - - 0.2 - - - - - - -
20/07:30pm 16.2 S 11 15 - - 0.0 - - - - - - -
20/07:00pm 15.1 S 11 15 - - 0.0 - - - - - - -
20/06:30pm 15.9 S 15 18 - - 0.0 - - - - - - -
20/06:00pm 16.5 S 11 17 - - 0.0 - - - - - - -
20/05:30pm 16.8 S 11 15 - - 0.0 - - - - - - -
20/05:00pm 16.7 S 12 17 - - 0.0 - - - - - - -
20/04:30pm 16.6 S 13 17 - - 0.0 - - - - - - -
20/04:00pm 16.4 S 17 22 - - 0.0 - - - - - - -
20/03:30pm 16.5 S 15 19 - - 0.0 - - - - - - -
20/03:00pm 16.3 S 16 22 - - 0.0 - - - - - - -
20/02:30pm 16.6 S 14 21 - - 0.0 - - - - - - -
20/02:00pm 16.8 S 15 20 - - 0.0 - - - - - - -
20/01:30pm 16.5 S 15 21 - - 0.0 - - - - - - -
20/01:00pm 15.4 S 15 20 - - 0.0 - - - - - - -
20/12:30pm 16.4 S 18 25 - - 0.0 - - - - - - -
20/12:00pm 15.6 S 21 29 - - 0.0 - - - - - - -
20/11:42am 16.3 S 18 29 - - 0.0 - - - - - - -
20/11:30am 15.8 S 19 25 - - 0.0 - - - - - - -
20/11:00am 15.7 S 19 26 - - 0.0 - - - - - - -
20/10:30am 16.8 S 19 25 - - 0.0 - - - - - - -
20/10:00am 16.8 S 21 30 - - 0.0 - - - - - - -
20/09:30am 16.8 S 22 28 - - 0.0 - - - - - - -
20/09:00am 16.8 S 23 32 - - 0.0 - - - - - - -
20/08:30am 16.9 S 24 34 - - 0.0 - - - - - - -
20/08:08am 17.2 S 24 34 - - 0.0 - - - - - - -
20/08:00am 17.0 S 24 31 - - 0.0 - - - - - - -
20/07:30am 17.2 S 22 29 - - 0.0 - - - - - - -
20/07:00am 17.3 S 24 32 - - 0.0 - - - - - - -
20/06:30am 17.5 S 22 30 - - 0.0 - - - - - - -
20/06:00am 17.6 S 22 28 - - 0.0 - - - - - - -
20/05:30am 17.6 S 23 30 - - 0.0 - - - - - - -
20/05:00am 17.7 S 27 35 - - 0.0 - - - - - - -
20/04:33am 18.6 S 26 36 - - 0.0 - - - - - - -
20/04:30am 18.8 S 27 36 - - 0.0 - - - - - - -
20/04:20am 19.2 SSW 30 37 - - 0.0 - - - - - - -
20/04:16am 18.5 S 17 31 - - 0.0 - - - - - - -
20/04:00am 17.2 SSW 5 11 - - 0.0 - - - - - - -
20/03:30am 17.2 E 3 4 - - 0.0 - - - - - - -
20/03:00am 17.5 W 2 8 - - 0.0 - - - - - - -
20/02:30am 16.4 NW 3 7 - - 0.0 - - - - - - -
20/02:00am 17.1 W 1 3 - - 0.0 - - - - - - -
20/01:30am 16.9 W 1 3 - - 0.0 - - - - - - -
20/01:00am 17.3 CALM 0 3 - - 0.0 - - - - - - -
20/12:30am 17.2 NW 5 6 - - 0.0 - - - - - - -
20/12:00am 16.8 NNW 4 5 - - 0.0 - - - - - - -
 
Date/Time
EDT
Temp

°C
Wind Pressure Rain
since 9am
mm
Weather Cloud Vis
km
Sea
Height
m
Swell
Dir
 
Speed
knots
Gust
knots
hPa Trend Height
m
Period
s
Dir
19/11:30pm 16.4 CALM 0 0 - - 0.0 - - - - - - -
19/11:00pm 17.0 CALM 0 0 - - 0.0 - - - - - - -
19/10:30pm 17.4 CALM 0 0 - - 0.0 - - - - - - -
19/10:00pm 17.6 N 3 5 - - 0.0 - - - - - - -
19/09:30pm 18.0 N 4 6 - - 0.0 - - - - - - -
19/09:00pm 18.1 N 6 8 - - 0.0 - - - - - - -
19/08:30pm 18.4 N 5 8 - - 0.0 - - - - - - -
19/08:00pm 18.5 N 4 7 - - 0.0 - - - - - - -
19/07:30pm 18.9 N 9 13 - - 0.0 - - - - - - -
19/07:00pm 19.0 N 12 16 - - 0.0 - - - - - - -
19/06:30pm 19.3 N 12 14 - - 0.0 - - - - - - -
19/06:00pm 19.7 N 11 16 - - 0.0 - - - - - - -
19/05:30pm 19.9 N 12 16 - - 0.0 - - - - - - -
19/05:00pm 20.4 N 10 14 - - 0.0 - - - - - - -
19/04:30pm 20.4 N 12 17 - - 0.0 - - - - - - -
19/04:00pm 20.6 N 10 15 - - 0.0 - - - - - - -
19/03:30pm 20.7 N 10 14 - - 0.0 - - - - - - -
19/03:00pm 21.2 NNE 10 13 - - 0.0 - - - - - - -
19/02:30pm 21.3 N 9 13 - - 0.0 - - - - - - -
19/02:00pm 20.9 N 12 16 - - 0.0 - - - - - - -
19/01:30pm 20.8 NNE 12 17 - - 0.0 - - - - - - -
19/01:00pm 20.6 NNE 13 18 - - 0.0 - - - - - - -
19/12:30pm 20.6 NNE 12 17 - - 0.0 - - - - - - -
19/12:00pm 20.5 NNE 13 17 - - 0.0 - - - - - - -
19/11:30am 20.5 NNE 10 14 - - 0.0 - - - - - - -
19/11:00am 20.1 NNE 10 14 - - 0.0 - - - - - - -
19/10:30am 20.1 NNE 9 13 - - 0.0 - - - - - - -
19/10:00am 19.5 NNE 9 12 - - 0.0 - - - - - - -
19/09:30am 19.2 NNE 8 10 - - 0.0 - - - - - - -
19/09:00am 18.0 N 7 10 - - 0.0 - - - - - - -
19/08:30am 16.7 N 5 7 - - 0.0 - - - - - - -
19/08:00am 15.3 N 5 8 - - 0.0 - - - - - - -
19/07:30am 13.7 NNW 6 9 - - 0.0 - - - - - - -
19/07:00am 12.8 NNW 6 9 - - 0.0 - - - - - - -
19/06:30am 12.2 NNW 6 8 - - 0.0 - - - - - - -
19/06:00am 12.1 NNW 4 7 - - 0.0 - - - - - - -
19/05:30am 12.9 NNW 6 8 - - 0.0 - - - - - - -
19/05:00am 12.5 NW 7 9 - - 0.0 - - - - - - -
19/04:30am 12.6 NNW 5 8 - - 0.0 - - - - - - -
19/04:00am 12.4 NW 6 8 - - 0.0 - - - - - - -
19/03:30am 12.7 NW 6 8 - - 0.0 - - - - - - -
19/03:00am 12.9 NW 6 8 - - 0.0 - - - - - - -
19/02:30am 12.9 NW 4 6 - - 0.0 - - - - - - -
19/02:00am 13.4 NW 6 8 - - 0.0 - - - - - - -
19/01:30am 13.3 NW 6 8 - - 0.0 - - - - - - -
19/01:00am 13.6 NW 6 8 - - 0.0 - - - - - - -
19/12:30am 13.8 NW 6 7 - - 0.0 - - - - - - -
19/12:00am 14.1 NW 7 8 - - 0.0 - - - - - - -
 
Date/Time
EDT
Temp

°C
Wind Pressure Rain
since 9am
mm
Weather Cloud Vis
km
Sea
Height
m
Swell
Dir
 
Speed
knots
Gust
knots
hPa Trend Height
m
Period
s
Dir
18/11:30pm 14.2 WNW 7 8 - - 0.0 - - - - - - -
18/11:00pm 14.2 NW 6 8 - - 0.0 - - - - - - -
18/10:30pm 14.2 WNW 7 9 - - 0.0 - - - - - - -
18/10:00pm 14.2 NW 8 9 - - 0.0 - - - - - - -
18/09:30pm 14.5 NW 7 8 - - 0.0 - - - - - - -
18/09:00pm 14.7 NW 5 7 - - 0.0 - - - - - - -
18/08:30pm 15.9 NNW 5 8 - - 0.0 - - - - - - -
18/08:00pm 16.8 N 9 13 - - 0.0 - - - - - - -
18/07:30pm 16.7 N 8 12 - - 0.0 - - - - - - -
18/07:00pm 16.8 N 8 11 - - 0.0 - - - - - - -
18/06:30pm 17.2 NNE 8 12 - - 0.0 - - - - - - -
18/06:00pm 17.6 NNE 8 11 - - 0.0 - - - - - - -
18/05:30pm 18.0 NNE 7 10 - - 0.0 - - - - - - -
18/05:00pm 18.5 NNE 8 10 - - 0.0 - - - - - - -
18/04:30pm 18.7 NNE 7 11 - - 0.0 - - - - - - -
18/04:00pm 19.1 NE 8 10 - - 0.0 - - - - - - -
18/03:30pm 18.8 NE 8 11 - - 0.0 - - - - - - -
18/03:00pm 19.1 NE 8 11 - - 0.0 - - - - - - -
18/02:30pm 18.9 NE 9 12 - - 0.0 - - - - - - -
18/02:00pm 19.2 NE 9 12 - - 0.0 - - - - - - -
18/01:30pm 18.7 NE 10 12 - - 0.0 - - - - - - -
18/01:00pm 18.4 NE 10 12 - - 0.0 - - - - - - -
18/12:30pm 18.8 NE 7 10 - - 0.0 - - - - - - -
18/12:00pm 19.4 NE 6 8 - - 0.0 - - - - - - -
18/11:30am 19.1 NE 5 9 - - 0.0 - - - - - - -
18/11:00am 18.7 ENE 4 6 - - 0.0 - - - - - - -
18/10:30am 19.1 NE 3 5 - - 0.0 - - - - - - -
18/10:00am 18.5 E 3 4 - - 0.0 - - - - - - -
18/09:30am 18.1 E 2 3 - - 0.0 - - - - - - -
18/09:00am 17.2 ESE 2 3 - - 0.0 - - - - - - -
18/08:30am 16.5 CALM 0 0 - - 0.0 - - - - - - -
18/08:00am 15.3 W 2 4 - - 0.0 - - - - - - -
18/07:30am 13.6 W 4 6 - - 0.0 - - - - - - -
18/07:00am 12.1 W 5 7 - - 0.0 - - - - - - -
18/06:30am 11.8 W 3 4 - - 0.0 - - - - - - -
18/06:00am 11.0 W 4 5 - - 0.0 - - - - - - -
18/05:30am 11.4 W 7 7 - - 0.0 - - - - - - -
18/05:00am 11.4 W 6 7 - - 0.0 - - - - - - -
18/04:30am 11.8 W 5 6 - - 0.0 - - - - - - -
18/04:00am 11.8 W 5 6 - - 0.0 - - - - - - -
18/03:30am 11.6 W 5 6 - - 0.0 - - - - - - -
18/03:00am 11.8 W 6 6 - - 0.0 - - - - - - -
18/02:30am 12.1 W 4 5 - - 0.0 - - - - - - -
18/02:00am 12.3 W 4 5 - - 0.0 - - - - - - -
18/01:30am 12.4 W 5 6 - - 0.0 - - - - - - -
18/01:00am 12.8 W 4 5 - - 0.0 - - - - - - -
18/12:30am 14.0 SW 4 6 - - 0.0 - - - - - - -

Other Formats:

Comma delimited format used in spreadsheet applications
http://www.bom.gov.au/fwo/IDN60701/IDN60701.95749.axf

JavaScript Object Notation format (JSON) in row-major order
http://www.bom.gov.au/fwo/IDN60701/IDN60701.95749.json